Time;durP1;ratioP1;P1;durP2;ratioP2;P2;SDS_P1;SDS_P2;PMS_P1;PMS_P2;Temp;Humidity;BMP_temperature;BMP_pressure;BME280_temperature;BME280_humidity;BME280_pressure;Samples;Min_cycle;Max_cycle;Signal;HPM_P1;HPM_P2
2022/01/30 00:01:32;;;;;;;24.27;4.78;;;;;;;8.63;59.97;102636.66;5091281;28;20066;-70
2022/01/30 00:03:57;;;;;;;23.73;4.93;;;;;;;8.62;60.29;102634.97;5101186;28;20023;-70
2022/01/30 00:06:23;;;;;;;24.80;5.30;;;;;;;8.63;59.92;102643.06;5099460;28;20059;-70
2022/01/30 00:08:49;;;;;;;28.42;4.88;;;;;;;8.59;59.68;102655.56;5097015;28;20032;-70
2022/01/30 00:11:19;;;;;;;27.48;4.95;;;;;;;8.54;60.16;102655.31;5094323;28;20032;-70
2022/01/30 00:13:45;;;;;;;22.00;4.90;;;;;;;8.53;59.95;102659.16;5098224;28;20024;-70
2022/01/30 00:16:11;;;;;;;26.95;4.82;;;;;;;8.43;60.30;102669.66;5097088;28;20024;-70
2022/01/30 00:23:51;;;;;;;25.63;5.17;;;;;;;8.36;59.93;102661.22;5113222;27;20031;-70
2022/01/30 00:26:18;;;;;;;30.58;4.97;;;;;;;8.28;60.49;102667.72;5125362;27;20031;-71
2022/01/30 00:28:44;;;;;;;23.45;4.82;;;;;;;8.27;60.06;102668.78;5102960;27;20063;-70
2022/01/30 00:31:10;;;;;;;27.77;4.93;;;;;;;8.24;60.27;102674.69;5098217;28;20062;-70
2022/01/30 00:33:35;;;;;;;21.80;4.70;;;;;;;8.28;60.08;102677.94;5109263;28;20042;-70
2022/01/30 00:36:00;;;;;;;23.27;4.43;;;;;;;8.31;60.43;102683.09;5103986;28;20032;-70
2022/01/30 00:38:27;;;;;;;33.50;5.38;;;;;;;8.27;60.13;102679.84;5093657;28;20032;-70
2022/01/30 00:40:53;;;;;;;28.20;5.10;;;;;;;8.32;59.80;102680.13;5105611;28;20028;-70
2022/01/30 00:43:19;;;;;;;26.10;5.07;;;;;;;8.26;60.06;102675.38;5098541;28;20035;-70
2022/01/30 00:45:45;;;;;;;21.63;4.57;;;;;;;8.30;59.31;102675.84;5093685;28;20028;-70
2022/01/30 00:48:11;;;;;;;31.05;4.95;;;;;;;8.22;59.51;102673.22;5096023;28;22331;-70
2022/01/30 00:50:37;;;;;;;22.67;5.13;;;;;;;8.27;60.07;102679.00;5105489;28;20030;-70
2022/01/30 00:53:03;;;;;;;34.47;5.72;;;;;;;8.25;60.08;102672.78;5105967;28;20502;-70
2022/01/30 00:55:30;;;;;;;23.35;4.80;;;;;;;8.26;59.81;102683.69;5093234;28;20024;-70
2022/01/30 00:57:56;;;;;;;25.42;4.70;;;;;;;8.25;59.72;102684.75;5098353;28;20067;-70
2022/01/30 01:00:23;;;;;;;27.77;5.70;;;;;;;8.17;59.92;102682.06;5094714;28;20043;-70
2022/01/30 01:02:48;;;;;;;21.92;4.57;;;;;;;8.14;60.36;102682.47;5097337;28;20552;-70
2022/01/30 01:05:15;;;;;;;24.60;5.60;;;;;;;8.12;59.89;102693.69;5101311;28;20111;-70
2022/01/30 01:07:46;;;;;;;26.90;5.30;;;;;;;8.11;60.06;102694.75;5092929;28;20024;-70
2022/01/30 01:10:30;;;;;;;33.17;5.90;;;;;;;8.07;60.13;102689.81;5092988;28;20170;-70
2022/01/30 01:13:13;;;;;;;29.10;4.90;;;;;;;8.02;60.31;102695.06;5094582;28;20080;-70
2022/01/30 01:23:53;;;;;;;22.55;4.45;;;;;;;7.82;60.76;102692.88;5099157;28;20054;-70
2022/01/30 01:26:20;;;;;;;21.73;5.22;;;;;;;7.91;60.67;102698.31;5091507;28;20497;-70
2022/01/30 01:28:46;;;;;;;28.60;5.65;;;;;;;7.87;60.37;102697.81;5102272;27;20042;-70
2022/01/30 01:31:12;;;;;;;32.90;4.97;;;;;;;7.86;61.70;102702.50;5121236;27;20390;-70
2022/01/30 01:36:12;;;;;;;27.15;5.15;;;;;;;7.87;61.04;102706.13;5112814;28;20455;-70
2022/01/30 01:38:38;;;;;;;28.45;4.90;;;;;;;7.90;61.32;102713.16;5106372;28;20065;-70
2022/01/30 01:41:03;;;;;;;26.33;5.28;;;;;;;7.89;61.58;102706.75;5092086;28;20028;-70
2022/01/30 01:43:30;;;;;;;24.00;4.63;;;;;;;7.91;61.93;102718.50;5095784;28;20075;-70
2022/01/30 01:45:57;;;;;;;25.10;5.10;;;;;;;7.89;61.12;102701.22;5091477;28;20106;-70
2022/01/30 01:48:23;;;;;;;28.10;5.18;;;;;;;7.89;61.21;102712.28;5093166;28;20455;-70
2022/01/30 01:50:55;;;;;;;25.67;5.05;;;;;;;7.86;61.22;102709.94;5092733;28;20109;-70
2022/01/30 01:53:22;;;;;;;;;;;;;;;8.06;61.67;102713.00;5091565;28;20059;-70
2022/01/30 01:55:47;;;;;;;27.65;5.15;;;;;;;7.80;61.08;102714.28;5103264;28;20006;-70
2022/01/30 01:58:12;;;;;;;29.05;5.03;;;;;;;7.74;61.22;102722.47;5100179;28;20418;-70
2022/01/30 02:00:38;;;;;;;23.85;4.55;;;;;;;7.71;60.95;102720.97;5091117;28;20035;-70
2022/01/30 02:03:04;;;;;;;29.63;5.18;;;;;;;7.66;61.37;102723.41;5092054;28;20055;-70
2022/01/30 02:05:32;;;;;;;26.02;5.07;;;;;;;7.63;61.42;102715.53;5091964;28;20060;-71
2022/01/30 02:08:26;;;;;;;36.65;5.47;;;;;;;7.67;61.17;102718.78;5093332;28;20518;-70
2022/01/30 02:10:58;;;;;;;27.48;4.63;;;;;;;7.61;61.52;102706.56;5091451;28;20043;-70
2022/01/30 02:24:18;;;;;;;22.38;4.90;;;;;;;7.58;61.16;102691.22;5098627;28;20513;-70
2022/01/30 02:26:46;;;;;;;30.55;4.47;;;;;;;7.57;61.84;102703.31;5110206;28;20871;-70
2022/01/30 02:29:12;;;;;;;24.25;4.97;;;;;;;7.53;61.60;102690.91;5106725;28;20035;-70
2022/01/30 02:31:40;;;;;;;32.08;5.07;;;;;;;7.50;61.61;102707.84;5109311;28;20167;-70
2022/01/30 02:34:06;;;;;;;21.05;4.40;;;;;;;7.49;62.65;102710.81;5094157;28;20036;-70
2022/01/30 02:36:32;;;;;;;23.02;5.03;;;;;;;7.50;62.33;102699.56;5090807;28;20023;-70
2022/01/30 02:38:59;;;;;;;28.25;4.95;;;;;;;7.55;62.04;102710.94;5091283;28;20028;-70
2022/01/30 02:41:24;;;;;;;31.45;4.85;;;;;;;7.47;62.52;102707.41;5112335;27;20061;-70
2022/01/30 02:44:16;;;;;;;28.05;5.82;;;;;;;7.50;62.48;102702.34;5093147;27;20059;-70
2022/01/30 02:46:41;;;;;;;26.98;4.65;;;;;;;7.42;62.26;102696.88;5091985;28;20043;-70
2022/01/30 02:51:53;;;;;;;24.13;4.82;;;;;;;7.39;62.40;102694.53;5098484;28;20040;-70
2022/01/30 02:54:19;;;;;;;28.75;5.00;;;;;;;7.41;62.70;102702.63;5109988;28;20033;-70
2022/01/30 02:56:45;;;;;;;25.52;4.47;;;;;;;7.37;62.49;102696.59;5110606;28;20887;-70
2022/01/30 02:59:11;;;;;;;29.65;5.35;;;;;;;7.31;62.15;102702.84;5093244;28;20023;-70
2022/01/30 03:01:37;;;;;;;25.00;4.50;;;;;;;7.29;62.49;102711.34;5099339;28;20042;-70
2022/01/30 03:04:02;;;;;;;30.70;4.88;;;;;;;7.24;62.10;102716.56;5106336;28;20020;-70
2022/01/30 03:06:28;;;;;;;25.00;4.70;;;;;;;7.24;62.18;102724.84;5102132;28;20032;-70
2022/01/30 03:08:54;;;;;;;24.40;4.97;;;;;;;7.18;62.73;102725.59;5092928;28;20043;-70
2022/01/30 03:11:19;;;;;;;21.30;4.63;;;;;;;7.24;62.56;102724.84;5106473;28;20480;-69
2022/01/30 03:13:45;;;;;;;27.95;5.43;;;;;;;7.20;62.39;102729.03;5109689;28;20118;-70
2022/01/30 03:16:10;;;;;;;22.30;4.65;;;;;;;7.24;62.81;102735.06;5093969;28;20043;-70
2022/01/30 03:18:36;;;;;;;28.80;5.05;;;;;;;7.23;62.15;102731.44;5097415;28;20040;-70
2022/01/30 03:21:02;;;;;;;24.67;4.63;;;;;;;7.22;62.44;102734.38;5091130;28;20368;-70
2022/01/30 03:23:28;;;;;;;27.00;4.95;;;;;;;7.19;62.23;102738.38;5094366;28;20039;-70
2022/01/30 03:25:57;;;;;;;29.75;5.32;;;;;;;7.18;62.94;102741.31;5089711;28;20111;-69
2022/01/30 03:28:23;;;;;;;31.85;5.07;;;;;;;7.19;63.01;102743.00;5100430;28;20505;-70
2022/01/30 03:30:53;;;;;;;26.38;4.97;;;;;;;7.19;62.78;102745.78;5111068;28;20036;-70
2022/01/30 03:33:18;;;;;;;21.48;4.85;;;;;;;7.22;63.14;102748.19;5103626;28;20043;-70
2022/01/30 03:35:44;;;;;;;26.77;5.45;;;;;;;7.23;63.48;102749.88;5108494;28;20141;-70
2022/01/30 03:38:09;;;;;;;26.83;5.18;;;;;;;7.28;63.20;102769.53;5099229;28;20084;-70
2022/01/30 03:40:34;;;;;;;26.00;4.80;;;;;;;7.23;62.91;102760.94;5110248;28;20055;-70
2022/01/30 03:42:59;;;;;;;25.38;4.35;;;;;;;7.22;63.52;102770.25;5100171;28;20024;-70
2022/01/30 03:45:25;;;;;;;28.63;5.90;;;;;;;7.29;63.84;102771.25;5093874;28;20111;-70
2022/01/30 03:47:55;;;;;;;25.75;5.53;;;;;;;7.22;63.51;102781.31;5112585;28;20028;-70
2022/01/30 03:50:21;;;;;;;30.27;4.75;;;;;;;7.24;63.47;102782.84;5102065;28;20077;-70
2022/01/30 03:52:46;;;;;;;25.60;4.30;;;;;;;7.27;63.46;102789.91;5110135;27;20036;-69
2022/01/30 03:55:11;;;;;;;21.40;4.72;;;;;;;7.28;63.65;102786.13;5100666;27;20047;-70
2022/01/30 03:57:37;;;;;;;29.23;5.15;;;;;;;7.22;63.96;102795.13;5095364;28;20047;-70
2022/01/30 04:00:04;;;;;;;31.83;5.70;;;;;;;7.25;63.61;102787.34;5093999;28;20062;-70
2022/01/30 04:02:29;;;;;;;28.17;5.20;;;;;;;7.27;63.55;102787.13;5112106;28;20031;-70
2022/01/30 04:04:54;;;;;;;31.30;5.22;;;;;;;7.29;63.69;102788.69;5114886;28;20031;-70
2022/01/30 04:07:19;;;;;;;30.38;5.10;;;;;;;7.31;63.64;102802.28;5105042;28;20430;-70
2022/01/30 04:09:45;;;;;;;26.15;5.43;;;;;;;7.27;63.34;102796.31;5094031;28;20028;-70
2022/01/30 04:12:11;;;;;;;22.38;4.63;;;;;;;7.24;64.16;102793.06;5103612;28;20027;-70
2022/01/30 04:14:36;;;;;;;30.70;5.30;;;;;;;7.22;64.07;102808.94;5101665;28;20434;-70
2022/01/30 04:17:02;;;;;;;26.70;4.82;;;;;;;7.22;63.93;102817.22;5098061;28;20028;-70
2022/01/30 04:19:27;;;;;;;26.00;4.70;;;;;;;7.23;63.62;102818.94;5114536;28;20057;-70
2022/01/30 04:21:53;;;;;;;27.92;5.18;;;;;;;7.27;63.82;102807.34;5105325;28;20032;-70
2022/01/30 04:24:18;;;;;;;25.35;5.53;;;;;;;7.27;63.61;102806.47;5098931;28;20136;-70
2022/01/30 04:26:44;;;;;;;23.45;5.10;;;;;;;7.28;63.52;102808.22;5096950;28;20061;-70
2022/01/30 04:29:09;;;;;;;29.05;5.25;;;;;;;7.23;63.82;102807.88;5100361;28;20032;-70
2022/01/30 04:31:35;;;;;;;22.70;4.70;;;;;;;7.24;64.06;102812.38;5107269;28;20038;-70
2022/01/30 04:34:00;;;;;;;21.52;4.47;;;;;;;7.25;63.53;102806.66;5095982;28;20040;-70
2022/01/30 04:36:31;;;;;;;30.02;6.00;;;;;;;7.24;63.83;102813.25;5109430;28;20036;-69
2022/01/30 04:41:51;;;;;;;22.45;4.32;;;;;;;7.26;64.14;102810.28;5104442;28;20032;-70
2022/01/30 04:52:53;;;;;;;18.42;4.55;;;;;;;7.30;63.76;102842.03;5105279;28;20043;-70
2022/01/30 04:58:18;;;;;;;28.30;5.25;;;;;;;7.29;63.93;102837.53;5105843;28;20048;-70
2022/01/30 05:08:25;;;;;;;26.55;5.03;;;;;;;7.29;63.73;102854.13;5113945;28;20431;-70
2022/01/30 05:10:53;;;;;;;24.55;4.60;;;;;;;7.34;62.69;102848.91;5093081;28;20051;-70
2022/01/30 05:13:21;;;;;;;22.10;4.65;;;;;;;7.25;63.05;102856.38;5110454;28;20032;-70
2022/01/30 05:15:47;;;;;;;24.75;4.70;;;;;;;7.25;62.75;102847.25;5101624;28;20031;-70
2022/01/30 05:18:26;;;;;;;24.85;4.50;;;;;;;7.22;63.06;102861.41;5112177;28;20020;-70
2022/01/30 05:20:52;;;;;;;22.60;4.57;;;;;;;7.20;62.53;102866.28;5096527;28;20383;-70
2022/01/30 05:23:18;;;;;;;21.63;4.60;;;;;;;7.16;63.12;102864.91;5092998;28;20032;-70
2022/01/30 05:25:47;;;;;;;22.95;4.63;;;;;;;7.08;63.80;102863.06;5099739;28;20504;-71
2022/01/30 05:28:17;;;;;;;20.52;4.07;;;;;;;7.08;63.45;102861.16;5102922;28;20484;-69
2022/01/30 05:30:43;;;;;;;20.75;4.47;;;;;;;7.07;63.75;102858.56;5111204;28;20038;-70
2022/01/30 05:33:09;;;;;;;24.27;4.13;;;;;;;7.01;63.65;102857.38;5112081;28;20032;-70
2022/01/30 05:35:35;;;;;;;22.67;3.85;;;;;;;6.94;62.74;102855.53;5111207;28;20497;-70
2022/01/30 05:38:02;;;;;;;28.90;5.10;;;;;;;6.89;63.23;102850.56;5106249;28;20127;-70
2022/01/30 05:40:28;;;;;;;25.05;4.30;;;;;;;6.92;63.83;102864.00;5110921;28;20028;-70
2022/01/30 05:42:53;;;;;;;25.10;4.50;;;;;;;6.92;63.53;102860.34;5110412;28;20080;-70
2022/01/30 05:45:28;;;;;;;21.42;4.03;;;;;;;6.88;63.66;102865.41;5091899;28;20463;-70
2022/01/30 05:47:59;;;;;;;20.90;4.65;;;;;;;6.79;63.03;102871.97;5099223;28;20035;-70
2022/01/30 05:50:24;;;;;;;26.85;4.55;;;;;;;6.80;63.67;102873.72;5109803;28;20031;-70
2022/01/30 05:52:50;;;;;;;21.80;4.10;;;;;;;6.80;63.17;102876.47;5091594;28;20044;-70
2022/01/30 05:55:15;;;;;;;18.52;3.90;;;;;;;6.80;62.97;102871.81;5100833;28;20478;-70
2022/01/30 05:57:41;;;;;;;19.77;4.38;;;;;;;6.79;63.13;102881.13;5095409;28;20070;-70
2022/01/30 06:00:09;;;;;;;23.98;4.70;;;;;;;6.77;63.19;102883.22;5096804;28;20039;-70
2022/01/30 06:02:35;;;;;;;18.83;4.05;;;;;;;6.78;62.33;102878.53;5098762;28;20509;-71
2022/01/30 06:05:02;;;;;;;19.98;4.18;;;;;;;6.74;62.32;102889.06;5104291;28;20097;-70
2022/01/30 06:07:31;;;;;;;21.33;3.75;;;;;;;6.84;62.56;102886.13;5109089;28;20059;-70
2022/01/30 06:09:56;;;;;;;20.98;4.15;;;;;;;6.81;62.96;102886.47;5106893;28;20027;-70
2022/01/30 06:12:21;;;;;;;23.02;4.20;;;;;;;6.77;62.57;102885.97;5096480;28;20058;-70
2022/01/30 06:14:47;;;;;;;20.98;3.78;;;;;;;6.73;62.00;102886.50;5115278;27;20088;-70
2022/01/30 06:17:13;;;;;;;20.20;4.38;;;;;;;6.76;61.88;102887.00;5115752;27;20131;-70
2022/01/30 06:19:38;;;;;;;22.13;3.95;;;;;;;6.76;62.25;102891.66;5104230;28;20051;-70
2022/01/30 06:22:04;;;;;;;21.38;4.32;;;;;;;6.73;61.80;102883.75;5103474;28;20474;-70
2022/01/30 06:24:29;;;;;;;22.05;4.38;;;;;;;6.70;61.97;102882.19;5108061;28;20031;-70
2022/01/30 06:26:54;;;;;;;25.10;4.95;;;;;;;6.75;62.64;102885.28;5095451;28;20085;-70
2022/01/30 06:29:20;;;;;;;15.85;4.18;;;;;;;6.71;61.93;102883.91;5091003;28;20039;-70
2022/01/30 06:31:45;;;;;;;27.02;5.18;;;;;;;6.71;62.29;102886.66;5095833;28;20099;-70
2022/01/30 06:34:10;;;;;;;21.88;4.05;;;;;;;6.74;62.43;102888.22;5108473;28;20399;-70
2022/01/30 06:36:35;;;;;;;18.15;3.65;;;;;;;6.74;62.49;102888.22;5094811;28;20035;-70
2022/01/30 06:39:01;;;;;;;16.95;3.63;;;;;;;6.75;63.01;102889.94;5101313;28;20027;-70
2022/01/30 06:41:26;;;;;;;16.27;3.50;;;;;;;6.78;63.07;102895.97;5093117;28;21509;-70
2022/01/30 06:43:51;;;;;;;20.33;3.85;;;;;;;6.76;62.54;102889.78;5110787;28;20026;-70
2022/01/30 06:46:17;;;;;;;18.50;3.58;;;;;;;6.77;62.43;102890.63;5099388;28;20039;-71
2022/01/30 06:48:42;;;;;;;18.15;3.80;;;;;;;6.80;62.85;102893.03;5094223;28;20464;-70
2022/01/30 06:51:07;;;;;;;19.38;3.83;;;;;;;6.80;63.10;102898.56;5102731;28;20076;-70
2022/01/30 06:53:33;;;;;;;21.30;3.75;;;;;;;6.82;62.18;102902.00;5104923;28;20741;-70
2022/01/30 06:55:58;;;;;;;20.20;3.90;;;;;;;6.82;62.52;102913.03;5090654;28;20066;-70
2022/01/30 06:58:23;;;;;;;23.08;3.45;;;;;;;6.82;62.51;102913.03;5101949;28;20491;-70
2022/01/30 07:00:49;;;;;;;20.13;3.65;;;;;;;6.80;61.82;102912.38;5108374;28;20431;-70
2022/01/30 07:03:14;;;;;;;14.73;3.03;;;;;;;6.78;61.98;102911.66;5099284;28;20043;-70
2022/01/30 07:05:39;;;;;;;24.17;4.15;;;;;;;6.73;62.29;102917.72;5111369;28;20024;-70
2022/01/30 07:08:05;;;;;;;21.83;3.90;;;;;;;6.82;62.50;102915.78;5108368;28;20027;-70
2022/01/30 07:10:30;;;;;;;23.60;4.07;;;;;;;6.75;62.81;102929.44;5100434;28;20032;-70
2022/01/30 07:12:55;;;;;;;19.52;3.67;;;;;;;6.79;62.48;102927.19;5106363;28;20032;-70
2022/01/30 07:15:21;;;;;;;16.15;3.50;;;;;;;6.70;62.79;102926.34;5100802;28;20070;-70
2022/01/30 07:17:47;;;;;;;16.95;3.90;;;;;;;6.69;63.35;102935.66;5101072;27;20123;-70
2022/01/30 07:20:13;;;;;;;21.27;3.50;;;;;;;6.68;62.90;102930.31;5105466;28;20119;-70
2022/01/30 07:22:38;;;;;;;18.73;3.47;;;;;;;6.67;62.62;102928.59;5111092;27;20043;-70
2022/01/30 07:25:07;;;;;;;21.23;3.70;;;;;;;6.68;62.99;102938.59;5112565;27;20562;-70
2022/01/30 07:27:34;;;;;;;20.17;4.03;;;;;;;6.63;62.65;102937.22;5104462;28;20039;-70
2022/01/30 07:30:00;;;;;;;24.85;4.15;;;;;;;6.64;63.64;102940.84;5106873;28;20036;-70
2022/01/30 07:32:25;;;;;;;17.35;4.00;;;;;;;6.60;62.89;102936.72;5098038;28;20032;-70
2022/01/30 07:34:51;;;;;;;23.40;3.97;;;;;;;6.58;63.77;102945.19;5097742;28;20055;-70
2022/01/30 07:37:17;;;;;;;23.05;4.25;;;;;;;6.56;62.86;102955.53;5098152;28;20051;-70
2022/01/30 07:39:43;;;;;;;19.20;3.38;;;;;;;6.55;63.08;102953.78;5112606;28;20051;-70
2022/01/30 07:42:09;;;;;;;23.00;3.88;;;;;;;6.57;62.88;102959.16;5110933;28;20100;-70
2022/01/30 07:44:34;;;;;;;19.58;4.18;;;;;;;6.47;62.31;102964.00;5097988;28;20043;-70
2022/01/30 07:46:59;;;;;;;28.17;3.40;;;;;;;6.53;62.91;102974.34;5105716;28;20122;-70
2022/01/30 07:49:25;;;;;;;20.88;3.83;;;;;;;6.46;62.68;102973.31;5111468;28;20390;-70
2022/01/30 07:51:50;;;;;;;19.52;3.97;;;;;;;6.50;62.84;102969.16;5098390;28;20040;-70
2022/01/30 07:54:15;;;;;;;22.33;3.80;;;;;;;6.53;62.81;102968.81;5110040;28;20027;-70
2022/01/30 07:56:40;;;;;;;16.13;4.35;;;;;;;6.52;62.53;102969.84;5110897;28;20478;-70
2022/01/30 07:59:06;;;;;;;21.60;3.55;;;;;;;6.57;62.67;102967.44;5110750;28;20031;-70
2022/01/30 08:01:31;;;;;;;19.13;3.60;;;;;;;6.55;62.80;102967.59;5113212;28;20126;-70
2022/01/30 08:03:56;;;;;;;17.17;4.22;;;;;;;6.54;62.42;102967.78;5105789;28;20111;-70
2022/01/30 08:06:22;;;;;;;28.27;4.22;;;;;;;6.52;62.69;102969.84;5106446;28;20114;-70
2022/01/30 08:08:47;;;;;;;23.05;4.28;;;;;;;6.50;62.83;102970.03;5097917;28;20012;-69
2022/01/30 08:11:12;;;;;;;19.00;4.38;;;;;;;6.49;62.47;102978.50;5106247;28;20040;-69
2022/01/30 08:13:38;;;;;;;18.55;3.75;;;;;;;6.49;62.11;102972.97;5106471;28;20032;-69
2022/01/30 08:16:04;;;;;;;17.02;3.45;;;;;;;6.50;62.60;102972.78;5105641;28;20036;-70
2022/01/30 08:18:29;;;;;;;28.35;4.28;;;;;;;6.52;62.59;102978.13;5109520;28;20394;-70
2022/01/30 08:20:55;;;;;;;23.75;3.90;;;;;;;6.51;62.28;102977.25;5101602;28;20019;-70
2022/01/30 08:23:23;;;;;;;19.98;3.90;;;;;;;6.51;62.60;102988.28;5110382;28;20030;-70
2022/01/30 08:25:48;;;;;;;21.98;4.05;;;;;;;6.54;62.80;102982.44;5117747;27;20062;-69
2022/01/30 08:28:14;;;;;;;21.27;3.55;;;;;;;6.58;62.05;102986.56;5104705;27;20059;-69
2022/01/30 08:30:39;;;;;;;18.15;4.15;;;;;;;6.54;61.87;102993.47;5113265;27;20040;-69
2022/01/30 08:33:04;;;;;;;16.40;3.53;;;;;;;6.59;62.44;102990.19;5112555;28;20482;-65
2022/01/30 08:35:30;;;;;;;16.73;4.03;;;;;;;6.61;62.40;102997.25;5112965;27;20446;-65
2022/01/30 08:37:56;;;;;;;22.35;4.25;;;;;;;6.64;62.28;102999.69;5110326;28;20088;-66
2022/01/30 08:40:23;;;;;;;17.00;3.75;;;;;;;6.68;62.15;102993.78;5112753;28;20035;-66
2022/01/30 08:42:49;;;;;;;19.60;4.05;;;;;;;6.74;61.79;102996.72;5097003;28;20478;-67
2022/01/30 08:45:17;;;;;;;19.38;4.30;;;;;;;6.76;62.29;102989.13;5104384;28;20039;-66
2022/01/30 08:47:43;;;;;;;22.15;4.75;;;;;;;6.80;62.35;102982.22;5102304;28;20053;-66
2022/01/30 08:50:10;;;;;;;16.83;4.40;;;;;;;6.90;63.33;102987.53;5101572;27;20040;-66
2022/01/30 08:52:36;;;;;;;24.50;4.10;;;;;;;6.87;62.23;102993.41;5110246;28;20062;-66
2022/01/30 08:55:05;;;;;;;23.83;4.30;;;;;;;6.88;62.44;102995.16;5102820;28;20024;-65
2022/01/30 08:57:31;;;;;;;37.78;4.68;;;;;;;6.92;62.10;102991.00;5101037;27;20130;-65
2022/01/30 08:59:58;;;;;;;26.05;4.32;;;;;;;6.91;61.57;102988.38;5118160;27;20740;-63
2022/01/30 09:02:24;;;;;;;19.95;3.50;;;;;;;6.94;61.83;102993.56;5102429;28;20076;-64
2022/01/30 09:04:49;;;;;;;25.23;4.50;;;;;;;6.96;61.61;102992.38;5109697;28;20032;-63
2022/01/30 09:07:15;;;;;;;23.83;4.68;;;;;;;6.99;61.47;102994.75;5106126;28;20027;-63
2022/01/30 09:09:40;;;;;;;17.77;4.78;;;;;;;7.03;61.57;102998.00;5110616;28;20073;-64
2022/01/30 09:12:06;;;;;;;26.02;5.00;;;;;;;7.05;62.20;103007.84;5104698;28;20031;-64
2022/01/30 09:14:32;;;;;;;21.42;4.45;;;;;;;7.07;61.81;103005.78;5101466;28;20097;-66
2022/01/30 09:16:58;;;;;;;24.77;4.45;;;;;;;7.05;61.87;103001.47;5099669;28;20038;-64
2022/01/30 09:19:23;;;;;;;24.05;4.63;;;;;;;7.21;64.26;103015.22;5109700;28;20032;-64
2022/01/30 09:21:48;;;;;;;23.60;4.32;;;;;;;7.24;61.86;103027.84;5107528;27;20471;-65
2022/01/30 09:24:14;;;;;;;21.00;4.60;;;;;;;7.23;61.42;103024.22;5109071;28;20070;-64
2022/01/30 09:26:40;;;;;;;25.08;4.57;;;;;;;7.28;61.03;103026.44;5105612;28;20055;-66
2022/01/30 09:29:05;;;;;;;25.00;5.88;;;;;;;7.30;61.48;103021.56;5105871;28;20055;-66
2022/01/30 09:31:30;;;;;;;24.98;5.05;;;;;;;7.32;60.64;103025.91;5105398;28;20104;-65
2022/01/30 09:33:56;;;;;;;22.33;4.53;;;;;;;7.38;61.40;103024.31;5105420;28;20050;-64
2022/01/30 09:36:21;;;;;;;20.90;4.07;;;;;;;7.43;60.44;103021.00;5108103;27;20035;-68
2022/01/30 09:38:46;;;;;;;18.70;4.63;;;;;;;7.46;60.20;103032.56;5107921;28;20389;-66
2022/01/30 09:41:12;;;;;;;18.70;4.55;;;;;;;7.49;58.92;103037.72;5109224;27;20035;-65
2022/01/30 09:43:38;;;;;;;24.73;4.18;;;;;;;7.52;58.65;103039.28;5101511;28;20038;-65
2022/01/30 09:46:04;;;;;;;23.90;4.00;;;;;;;7.54;58.80;103045.47;5103354;28;20031;-63
2022/01/30 09:48:36;;;;;;;28.08;4.68;;;;;;;7.68;58.55;103046.63;5101442;28;20033;-63
2022/01/30 09:51:08;;;;;;;21.20;4.10;;;;;;;7.68;58.74;103046.63;5099376;28;20028;-62
2022/01/30 09:53:34;;;;;;;28.48;4.97;;;;;;;7.66;56.97;103041.28;5102190;28;20039;-62
2022/01/30 09:56:03;;;;;;;22.17;4.55;;;;;;;7.57;57.30;103043.22;5102849;28;20489;-62
2022/01/30 09:58:29;;;;;;;29.98;4.78;;;;;;;7.60;57.90;103045.63;5100173;28;20577;-62
2022/01/30 10:00:55;;;;;;;20.60;4.40;;;;;;;7.69;58.16;103056.66;5106537;28;20023;-61
2022/01/30 10:03:26;;;;;;;21.48;4.32;;;;;;;7.69;57.76;103051.13;5099956;28;20043;-63
2022/01/30 10:06:12;;;;;;;20.50;5.05;;;;;;;7.72;58.24;103059.91;5103532;28;20034;-63
2022/01/30 10:08:42;;;;;;;23.77;5.13;;;;;;;7.80;57.71;103056.25;5105295;28;20023;-62
2022/01/30 10:11:27;;;;;;;31.90;4.78;;;;;;;7.93;57.57;103064.81;5105056;28;20032;-63
2022/01/30 10:14:14;;;;;;;20.85;4.63;;;;;;;8.12;58.07;103074.56;5104058;28;20028;-63
2022/01/30 10:16:49;;;;;;;26.85;4.40;;;;;;;8.21;57.83;103078.97;5101947;28;20027;-64
2022/01/30 10:19:20;;;;;;;19.67;3.90;;;;;;;8.66;64.71;103076.44;5095746;28;20493;-61
2022/01/30 10:21:47;;;;;;;27.65;4.55;;;;;;;8.61;57.58;103077.00;5100208;28;20020;-64
2022/01/30 10:24:21;;;;;;;22.55;4.05;;;;;;;8.67;56.93;103075.38;5101029;28;20123;-64
2022/01/30 10:26:47;;;;;;;31.35;5.00;;;;;;;8.60;56.48;103073.34;5099269;28;20040;-64
2022/01/30 10:29:20;;;;;;;19.83;3.95;;;;;;;8.53;56.55;103077.06;5101760;28;20100;-63
2022/01/30 10:32:06;;;;;;;22.88;4.40;;;;;;;8.62;57.42;103075.94;5101905;28;20442;-65
2022/01/30 10:34:33;;;;;;;27.52;5.10;;;;;;;8.74;57.02;103077.22;5105156;28;20036;-64
2022/01/30 10:37:15;;;;;;;23.05;5.25;;;;;;;8.87;56.97;103070.19;5101047;28;20020;-65
2022/01/30 10:40:07;;;;;;;27.83;5.03;;;;;;;9.01;56.96;103072.13;5103072;28;20110;-64
2022/01/30 10:42:41;;;;;;;24.57;4.70;;;;;;;9.08;55.78;103067.56;5101822;28;20067;-66
2022/01/30 10:45:08;;;;;;;27.00;4.53;;;;;;;9.16;54.96;103067.47;5101072;28;20299;-65
2022/01/30 10:47:35;;;;;;;25.80;4.57;;;;;;;9.15;54.54;103068.50;5102933;28;20038;-66
2022/01/30 10:50:00;;;;;;;25.45;5.05;;;;;;;9.10;54.78;103065.44;5106318;28;20027;-65
2022/01/30 10:52:26;;;;;;;27.52;4.57;;;;;;;9.07;55.17;103069.44;5104793;28;20023;-65
2022/01/30 10:55:04;;;;;;;34.97;6.47;;;;;;;8.99;54.90;103069.53;5104304;28;20035;-65
2022/01/30 10:57:29;;;;;;;32.17;5.55;;;;;;;8.88;54.47;103050.59;5103456;28;20036;-65
2022/01/30 10:59:56;;;;;;;30.90;5.00;;;;;;;8.83;54.66;103065.03;5102775;28;20035;-66
2022/01/30 11:02:23;;;;;;;25.88;4.78;;;;;;;8.78;54.09;103072.19;5102180;28;20050;-65
2022/01/30 11:04:50;;;;;;;26.17;5.38;;;;;;;8.70;55.04;103069.50;5110028;28;20036;-66
2022/01/30 11:07:20;;;;;;;24.90;5.03;;;;;;;8.73;54.58;103052.50;5104325;28;20035;-65
2022/01/30 11:10:01;;;;;;;27.90;4.30;;;;;;;8.73;54.46;103052.50;5090098;28;20190;-66
2022/01/30 11:12:40;;;;;;;32.30;5.05;;;;;;;8.72;54.43;103039.69;5106139;28;20032;-66
2022/01/30 11:15:20;;;;;;;27.15;5.38;;;;;;;8.69;53.96;103037.31;5094416;28;20039;-65
2022/01/30 11:17:46;;;;;;;27.85;4.90;;;;;;;8.75;54.78;103034.63;5100394;28;20031;-65
2022/01/30 11:20:13;;;;;;;27.30;4.43;;;;;;;8.85;54.87;103028.84;5103037;28;20534;-65
2022/01/30 11:22:41;;;;;;;24.83;5.38;;;;;;;8.95;54.13;103034.09;5089760;28;20390;-65
2022/01/30 11:25:09;;;;;;;26.20;4.50;;;;;;;9.01;53.77;103033.34;5105582;28;20038;-65
2022/01/30 11:27:35;;;;;;;29.55;5.55;;;;;;;8.91;52.62;103033.63;5110661;28;20032;-65
2022/01/30 11:30:01;;;;;;;24.75;4.22;;;;;;;8.89;52.95;103034.88;5090283;28;20035;-65
2022/01/30 11:32:27;;;;;;;24.05;4.97;;;;;;;8.93;52.23;103036.22;5099006;28;20066;-65
2022/01/30 11:34:54;;;;;;;23.77;4.60;;;;;;;8.99;52.56;103036.31;5110668;28;20048;-65
2022/01/30 11:37:22;;;;;;;23.98;4.80;;;;;;;9.01;52.07;103036.13;5108180;28;20071;-65
2022/01/30 11:39:51;;;;;;;26.38;5.43;;;;;;;8.87;51.82;103035.03;5110471;28;20027;-65
2022/01/30 11:42:20;;;;;;;21.48;4.25;;;;;;;8.71;52.11;103037.97;5107697;28;20090;-65
2022/01/30 11:44:48;;;;;;;21.02;4.43;;;;;;;8.64;50.92;103032.31;5089556;28;20024;-65
2022/01/30 11:47:13;;;;;;;21.25;4.93;;;;;;;8.63;51.54;103029.75;5089457;28;20035;-65
2022/01/30 11:49:55;;;;;;;20.58;4.65;;;;;;;8.62;52.37;103025.28;5092033;28;20024;-62
2022/01/30 11:52:41;;;;;;;26.55;4.47;;;;;;;8.62;52.25;103028.03;5089416;28;20031;-66
2022/01/30 11:55:27;;;;;;;29.13;4.72;;;;;;;8.63;52.78;103019.53;5091437;28;20027;-65
2022/01/30 11:57:52;;;;;;;26.40;4.70;;;;;;;8.66;52.81;103019.16;5089467;28;20507;-65
2022/01/30 12:00:37;;;;;;;30.02;5.13;;;;;;;8.73;53.84;103022.06;5088162;28;20031;-66
2022/01/30 12:03:24;;;;;;;24.48;4.78;;;;;;;8.74;53.49;103013.53;5095838;28;20023;-66
2022/01/30 12:05:51;;;;;;;24.05;4.20;;;;;;;8.74;53.45;103015.47;5093611;28;20059;-66
2022/01/30 12:08:44;;;;;;;22.52;4.55;;;;;;;8.80;54.30;103015.56;5104003;28;20028;-66
2022/01/30 12:11:34;;;;;;;22.45;4.20;;;;;;;8.81;53.11;103016.44;5109445;28;20539;-66
2022/01/30 12:14:00;;;;;;;29.33;5.00;;;;;;;8.69;51.32;103010.50;5107772;28;20043;-66
2022/01/30 12:16:44;;;;;;;28.00;4.22;;;;;;;8.67;52.98;103009.81;5107988;28;20042;-65
2022/01/30 12:19:11;;;;;;;24.52;4.10;;;;;;;8.65;51.98;103005.53;5107399;28;20046;-66